Time;durP1;ratioP1;P1;durP2;ratioP2;P2;SDS_P1;SDS_P2;PMS_P1;PMS_P2;Temp;Humidity;BMP_temperature;BMP_pressure;BME280_temperature;BME280_humidity;BME280_pressure;Samples;Min_cycle;Max_cycle;Signal;HPM_P1;HPM_P2
2024/04/08 00:01:11;;;;;;;6.70;1.97;;;;;;;15.42;79.12;95363.94;5464720;26;20240;-87
2024/04/08 00:03:39;;;;;;;8.80;2.53;;;;;;;15.48;78.68;95361.06;5496205;26;20275;-87
2024/04/08 00:06:08;;;;;;;7.03;2.13;;;;;;;15.50;78.84;95350.19;5464820;26;20271;-87
2024/04/08 00:08:34;;;;;;;9.43;2.43;;;;;;;15.36;78.13;95351.66;5497340;26;20583;-87
2024/04/08 00:11:07;;;;;;;7.63;1.97;;;;;;;15.48;77.98;95362.94;5497754;26;20225;-86
2024/04/08 00:13:37;;;;;;;7.63;2.13;;;;;;;15.35;78.46;95364.16;5496264;26;20270;-87
2024/04/08 00:16:06;;;;;;;7.23;2.20;;;;;;;15.42;78.88;95364.72;5497184;26;20275;-87
2024/04/08 00:18:32;;;;;;;8.70;2.83;;;;;;;15.29;79.42;95367.78;5496875;26;20697;-87
2024/04/08 00:21:08;;;;;;;5.50;1.67;;;;;;;15.34;79.72;95365.19;5497195;26;20233;-87
2024/04/08 00:23:34;;;;;;;5.10;2.07;;;;;;;15.35;80.14;95345.56;5497006;26;20340;-87
2024/04/08 00:26:04;;;;;;;3.77;1.77;;;;;;;15.29;80.18;95335.94;5497388;26;20229;-87
2024/04/08 00:28:30;;;;;;;5.60;2.07;;;;;;;15.24;79.96;95336.72;5465170;26;20275;-87
2024/04/08 00:31:03;;;;;;;6.67;2.10;;;;;;;15.19;79.85;95354.47;5498464;26;20224;-87
2024/04/08 00:33:30;;;;;;;6.33;1.80;;;;;;;15.23;79.95;95339.63;5497646;26;20594;-87
2024/04/08 00:35:58;;;;;;;7.10;2.20;;;;;;;15.24;79.77;95351.81;5497829;26;20603;-87
2024/04/08 00:38:27;;;;;;;4.67;2.27;;;;;;;15.24;79.60;95349.97;5465580;26;20246;-87
2024/04/08 00:40:58;;;;;;;11.03;2.40;;;;;;;15.15;80.70;95351.50;5498453;26;20292;-87
2024/04/08 00:43:24;;;;;;;5.77;2.07;;;;;;;15.10;80.79;95345.34;5497730;26;20334;-87
2024/04/08 00:45:53;;;;;;;7.93;2.13;;;;;;;15.05;81.41;95348.75;5497240;26;20236;-87
2024/04/08 00:48:19;;;;;;;10.67;2.23;;;;;;;15.07;81.19;95328.09;5496850;26;20236;-87
2024/04/08 00:50:49;;;;;;;7.13;2.37;;;;;;;15.11;81.35;95337.16;5496794;26;20275;-87
2024/04/08 00:53:15;;;;;;;5.83;2.17;;;;;;;15.05;80.93;95334.72;5498154;26;20220;-87
2024/04/08 00:55:47;;;;;;;6.57;2.20;;;;;;;15.00;81.32;95339.97;5496931;26;20270;-87
2024/04/08 00:58:12;;;;;;;5.30;1.70;;;;;;;15.01;81.24;95333.59;5464727;26;20669;-86
2024/04/08 01:00:41;;;;;;;8.30;2.03;;;;;;;15.08;81.28;95340.28;5497519;26;20292;-86
2024/04/08 01:03:07;;;;;;;7.57;1.80;;;;;;;15.13;81.07;95335.03;5494123;26;20225;-87
2024/04/08 01:05:37;;;;;;;5.97;2.07;;;;;;;15.26;79.68;95335.66;5492644;26;20270;-86
2024/04/08 01:08:03;;;;;;;5.47;1.93;;;;;;;15.08;81.13;95345.59;5492980;26;20240;-87
2024/04/08 01:10:32;;;;;;;4.57;2.07;;;;;;;15.01;82.48;95345.00;5491476;26;20225;-87
2024/04/08 01:13:00;;;;;;;10.33;2.10;;;;;;;14.94;83.86;95347.06;5460009;26;20236;-86
2024/04/08 01:15:28;;;;;;;5.13;2.27;;;;;;;14.76;84.77;95336.00;5492478;26;20267;-87
2024/04/08 01:17:55;;;;;;;8.17;2.43;;;;;;;14.90;84.77;95338.03;5492451;26;20564;-87
2024/04/08 01:20:23;;;;;;;5.20;2.00;;;;;;;14.92;83.81;95340.41;5494554;26;20225;-87
2024/04/08 01:22:49;;;;;;;4.70;1.80;;;;;;;14.88;84.30;95336.66;5496701;26;20697;-86
2024/04/08 01:25:20;;;;;;;9.20;3.40;;;;;;;14.85;84.74;95337.16;5491571;26;20305;-86
2024/04/08 01:27:46;;;;;;;8.60;2.50;;;;;;;14.87;84.48;95327.09;5492246;26;20237;-86
2024/04/08 01:30:15;;;;;;;6.47;2.27;;;;;;;14.82;84.39;95324.44;5460198;26;20292;-87
2024/04/08 01:32:40;;;;;;;5.50;2.27;;;;;;;14.85;83.84;95310.66;5492530;26;20228;-86
2024/04/08 01:35:10;;;;;;;7.13;2.00;;;;;;;14.96;83.10;95312.34;5459281;26;20292;-87
2024/04/08 01:37:36;;;;;;;5.07;1.90;;;;;;;14.85;83.77;95329.22;5492664;26;20282;-87
2024/04/08 01:40:05;;;;;;;8.20;2.13;;;;;;;14.80;84.00;95327.31;5492233;26;20228;-86
2024/04/08 01:42:33;;;;;;;7.97;2.13;;;;;;;14.90;83.32;95327.41;5492548;26;20232;-86
2024/04/08 01:45:02;;;;;;;6.23;2.30;;;;;;;14.87;83.58;95327.09;5459097;26;20275;-87
2024/04/08 01:47:28;;;;;;;8.03;2.20;;;;;;;14.83;83.66;95334.78;5492425;26;20288;-87
2024/04/08 01:49:56;;;;;;;2.80;1.90;;;;;;;14.74;84.85;95332.81;5491913;26;20285;-87
2024/04/08 01:52:22;;;;;;;12.40;2.30;;;;;;;14.63;84.96;95331.94;5460225;26;20232;-87
2024/04/08 01:54:51;;;;;;;5.10;2.03;;;;;;;14.70;84.91;95331.72;5491212;26;20291;-86
2024/04/08 01:57:17;;;;;;;6.13;2.10;;;;;;;14.76;84.24;95333.38;5459622;26;20244;-87
2024/04/08 01:59:48;;;;;;;6.13;2.03;;;;;;;14.49;84.93;95347.41;5491528;26;20300;-86
2024/04/08 02:02:14;;;;;;;6.90;2.07;;;;;;;14.62;84.99;95345.41;5492098;26;20712;-87
2024/04/08 02:04:42;;;;;;;9.03;2.47;;;;;;;14.71;84.67;95343.91;5490999;26;20314;-87
2024/04/08 02:07:08;;;;;;;6.33;2.20;;;;;;;14.48;84.98;95356.41;5492055;26;20240;-86
2024/04/08 02:09:37;;;;;;;6.53;3.13;;;;;;;14.34;86.38;95357.84;5491804;26;20231;-87
2024/04/08 02:12:03;;;;;;;6.63;1.90;;;;;;;14.39;86.59;95368.50;5492311;26;20270;-86
2024/04/08 02:14:32;;;;;;;11.10;2.63;;;;;;;14.25;86.60;95361.13;5491646;26;20236;-86
2024/04/08 02:17:01;;;;;;;8.70;2.40;;;;;;;14.33;87.14;95366.03;5492365;26;20239;-87
2024/04/08 02:19:30;;;;;;;5.80;2.47;;;;;;;14.35;86.93;95367.38;5459788;26;20273;-86
2024/04/08 02:21:56;;;;;;;5.80;1.83;;;;;;;14.33;86.90;95372.13;5494939;26;20224;-86
2024/04/08 02:24:24;;;;;;;8.27;2.53;;;;;;;14.29;86.63;95364.88;5495478;26;20739;-86
2024/04/08 02:26:50;;;;;;;16.87;2.67;;;;;;;14.25;86.81;95359.28;5463276;26;20564;-86
2024/04/08 02:29:19;;;;;;;8.13;2.30;;;;;;;14.27;86.71;95357.19;5495713;26;20224;-87
2024/04/08 02:31:45;;;;;;;11.70;2.23;;;;;;;14.22;85.96;95365.06;5495344;26;20279;-86
2024/04/08 02:34:17;;;;;;;11.00;2.37;;;;;;;14.24;85.84;95362.19;5495502;26;20224;-87
2024/04/08 02:36:44;;;;;;;6.00;2.90;;;;;;;14.15;85.90;95361.00;5463720;26;20240;-86
2024/04/08 02:39:12;;;;;;;5.77;2.43;;;;;;;14.14;85.89;95364.72;5495592;26;20233;-86
2024/04/08 02:41:38;;;;;;;6.80;2.40;;;;;;;14.19;86.25;95360.25;5496165;26;20228;-87
2024/04/08 02:44:07;;;;;;;6.90;2.33;;;;;;;14.12;85.90;95364.94;5495337;26;20289;-87
2024/04/08 02:46:33;;;;;;;4.07;2.17;;;;;;;14.12;85.38;95362.28;5463355;26;20249;-86
2024/04/08 02:49:01;;;;;;;7.03;2.50;;;;;;;14.07;85.47;95356.16;5462908;26;20285;-87
2024/04/08 02:51:30;;;;;;;11.17;2.80;;;;;;;14.07;85.87;95364.09;5495705;26;20225;-86
2024/04/08 02:53:59;;;;;;;6.93;2.53;;;;;;;14.02;85.83;95364.84;5496601;26;20547;-87
2024/04/08 02:56:25;;;;;;;7.03;2.83;;;;;;;13.95;85.82;95371.34;5495867;26;20232;-86
2024/04/08 02:58:53;;;;;;;8.40;2.17;;;;;;;14.01;85.61;95371.16;5495711;26;20268;-86
2024/04/08 03:01:19;;;;;;;9.20;1.90;;;;;;;13.98;85.10;95368.22;5496104;26;20224;-87
2024/04/08 03:03:48;;;;;;;9.27;2.13;;;;;;;13.97;83.98;95372.72;5496214;26;20228;-86
2024/04/08 03:06:14;;;;;;;7.07;2.10;;;;;;;14.13;83.96;95374.50;5495574;26;20228;-87
2024/04/08 03:08:46;;;;;;;11.17;2.43;;;;;;;14.01;83.51;95370.34;5496247;26;20228;-87
2024/04/08 03:11:12;;;;;;;12.33;2.50;;;;;;;13.88;83.67;95372.31;5497576;26;20228;-87
2024/04/08 03:13:42;;;;;;;8.23;2.10;;;;;;;13.83;84.29;95371.47;5463597;26;20287;-86
2024/04/08 03:16:07;;;;;;;11.43;2.40;;;;;;;13.97;83.99;95364.75;5465087;26;20271;-87
2024/04/08 03:18:36;;;;;;;7.87;2.43;;;;;;;13.83;82.86;95368.81;5464160;26;20284;-87
2024/04/08 03:21:03;;;;;;;4.63;1.93;;;;;;;13.86;82.03;95376.28;5496720;26;20225;-87
2024/04/08 03:23:32;;;;;;;6.33;2.00;;;;;;;13.94;82.32;95377.69;5497620;26;20300;-86
2024/04/08 03:26:01;;;;;;;7.40;2.00;;;;;;;13.81;82.68;95379.66;5497221;26;20220;-87
2024/04/08 03:28:30;;;;;;;7.77;2.53;;;;;;;13.62;83.80;95393.38;5465294;26;20325;-87
2024/04/08 03:30:56;;;;;;;10.63;1.93;;;;;;;13.40;85.18;95382.72;5497029;26;20225;-87
2024/04/08 03:33:25;;;;;;;7.43;2.07;;;;;;;13.37;85.25;95377.13;5495951;26;20317;-87
2024/04/08 03:35:51;;;;;;;4.03;1.93;;;;;;;13.36;85.64;95381.59;5464377;26;20271;-86
2024/04/08 03:38:20;;;;;;;9.17;2.07;;;;;;;13.26;86.40;95389.38;5495956;26;20237;-86
2024/04/08 03:40:49;;;;;;;8.30;2.30;;;;;;;13.16;87.04;95392.66;5497203;26;20703;-87
2024/04/08 03:43:21;;;;;;;6.97;1.83;;;;;;;13.18;87.44;95387.91;5497879;26;20270;-87
2024/04/08 03:45:51;;;;;;;7.93;2.37;;;;;;;13.26;87.36;95372.69;5497011;26;20271;-87
2024/04/08 03:48:17;;;;;;;13.03;2.30;;;;;;;13.32;86.61;95371.75;5496942;26;20287;-87
2024/04/08 03:50:45;;;;;;;8.83;2.73;;;;;;;13.32;86.53;95369.09;5496864;26;20263;-87
2024/04/08 03:53:11;;;;;;;21.27;2.77;;;;;;;13.06;87.40;95378.47;5496766;26;20259;-87
2024/04/08 03:55:40;;;;;;;7.50;2.40;;;;;;;12.92;87.86;95393.81;5463991;26;20268;-87
2024/04/08 03:58:06;;;;;;;3.73;1.93;;;;;;;13.00;87.70;95380.19;5498401;26;20238;-87
2024/04/08 04:00:37;;;;;;;7.23;2.00;;;;;;;13.10;87.60;95379.59;5497806;26;20714;-87
2024/04/08 04:03:04;;;;;;;7.13;2.37;;;;;;;12.90;87.87;95380.03;5499245;26;20224;-87
2024/04/08 04:05:32;;;;;;;12.07;2.67;;;;;;;13.13;88.49;95379.91;5496312;26;20237;-87
2024/04/08 04:07:58;;;;;;;8.67;2.80;;;;;;;12.84;88.30;95372.22;5464317;26;20244;-87
2024/04/08 04:10:26;;;;;;;6.80;1.97;;;;;;;12.78;89.50;95384.56;5496956;26;20300;-87
2024/04/08 04:12:52;;;;;;;8.87;2.53;;;;;;;12.87;89.67;95374.41;5496702;26;20225;-87
2024/04/08 04:15:20;;;;;;;13.50;2.73;;;;;;;12.89;89.95;95373.13;5463192;26;20748;-86
2024/04/08 04:17:49;;;;;;;8.97;2.27;;;;;;;12.95;90.02;95374.03;5497000;26;20236;-87
2024/04/08 04:20:18;;;;;;;5.90;2.13;;;;;;;12.87;89.51;95385.78;5464377;26;20752;-87
2024/04/08 04:22:46;;;;;;;8.80;2.53;;;;;;;12.78;90.06;95386.41;5496871;26;20225;-87
2024/04/08 04:25:15;;;;;;;11.03;2.20;;;;;;;12.85;90.32;95381.75;5463810;26;20274;-87
2024/04/08 04:27:40;;;;;;;8.03;2.97;;;;;;;12.85;90.45;95379.94;5496278;26;20259;-87
2024/04/08 04:30:10;;;;;;;4.90;2.77;;;;;;;12.85;90.57;95379.94;5495710;26;20571;-87
2024/04/08 04:32:36;;;;;;;7.90;2.67;;;;;;;12.80;90.61;95382.47;5463064;26;20243;-87
2024/04/08 04:35:07;;;;;;;6.50;2.50;;;;;;;12.95;90.04;95376.66;5494293;26;20228;-86
2024/04/08 04:37:33;;;;;;;7.60;3.03;;;;;;;12.95;90.23;95371.38;5495156;26;20237;-87
2024/04/08 04:40:01;;;;;;;5.07;2.50;;;;;;;12.98;90.08;95366.41;5496359;26;20281;-87
2024/04/08 04:42:27;;;;;;;6.17;2.53;;;;;;;12.93;90.01;95368.16;5496387;26;20224;-87
2024/04/08 04:44:55;;;;;;;5.50;3.10;;;;;;;12.89;90.08;95373.13;5493151;26;20604;-88
2024/04/08 04:47:21;;;;;;;9.20;2.47;;;;;;;13.01;89.48;95370.41;5499228;26;20233;-87
2024/04/08 04:49:50;;;;;;;8.37;2.50;;;;;;;12.87;88.95;95375.19;5495213;26;20308;-87
2024/04/08 04:52:18;;;;;;;9.73;1.93;;;;;;;12.86;88.41;95373.59;5463777;26;20275;-87
2024/04/08 04:54:47;;;;;;;62.53;7.07;;;;;;;12.75;87.83;95376.28;5496356;26;20296;-87
2024/04/08 04:57:13;;;;;;;30.93;3.10;;;;;;;12.70;87.96;95376.19;5496554;26;20283;-87
2024/04/08 04:59:41;;;;;;;21.73;2.43;;;;;;;12.75;87.53;95378.94;5496230;26;20236;-86
2024/04/08 05:02:07;;;;;;;12.50;2.17;;;;;;;12.87;87.48;95372.56;5496223;26;20310;-87
2024/04/08 05:04:35;;;;;;;6.63;2.20;;;;;;;13.11;85.28;95379.38;5463238;26;20252;-87
2024/04/08 05:07:01;;;;;;;10.67;2.00;;;;;;;13.19;82.13;95375.50;5495900;26;20237;-87
2024/04/08 05:09:34;;;;;;;12.93;2.73;;;;;;;12.72;86.00;95380.19;5494153;26;20256;-87
2024/04/08 05:12:01;;;;;;;9.30;2.90;;;;;;;12.74;87.39;95380.75;5465181;26;20232;-88
2024/04/08 05:14:30;;;;;;;28.33;3.43;;;;;;;12.77;87.39;95384.78;5459124;26;20269;-87
2024/04/08 05:16:55;;;;;;;20.30;3.50;;;;;;;12.80;87.23;95379.03;5460612;26;20244;-86
2024/04/08 05:19:24;;;;;;;17.03;3.17;;;;;;;12.77;87.27;95374.22;5490355;26;20304;-86
2024/04/08 05:21:50;;;;;;;8.13;2.70;;;;;;;12.70;88.05;95395.50;5492875;26;20236;-86
2024/04/08 05:24:18;;;;;;;8.77;2.17;;;;;;;12.69;88.50;95377.25;5490467;26;20296;-86
2024/04/08 05:26:47;;;;;;;7.03;2.07;;;;;;;12.67;89.33;95389.91;5491747;26;20291;-86
2024/04/08 05:29:15;;;;;;;7.37;2.23;;;;;;;12.73;89.45;95397.69;5491767;26;20280;-86
2024/04/08 05:31:41;;;;;;;5.63;2.10;;;;;;;12.83;88.59;95383.84;5492415;26;20252;-86
2024/04/08 05:34:10;;;;;;;15.07;3.23;;;;;;;12.92;88.44;95385.88;5492976;26;20288;-86
2024/04/08 05:36:36;;;;;;;14.10;2.70;;;;;;;12.87;88.91;95372.56;5458621;26;20248;-86
2024/04/08 05:39:04;;;;;;;13.77;2.70;;;;;;;12.80;89.11;95373.75;5459748;26;21039;-86
2024/04/08 05:41:31;;;;;;;11.73;2.87;;;;;;;12.87;89.28;95375.19;5491290;26;20292;-86
2024/04/08 05:44:03;;;;;;;10.23;2.87;;;;;;;12.77;89.76;95379.50;5460055;26;20271;-86
2024/04/08 05:46:28;;;;;;;6.87;2.57;;;;;;;12.78;89.83;95373.19;5460403;26;20248;-86
2024/04/08 05:48:57;;;;;;;8.53;2.50;;;;;;;12.77;90.29;95371.56;5494166;26;20290;-86
2024/04/08 05:51:26;;;;;;;10.63;2.57;;;;;;;12.92;90.11;95366.56;5494529;26;20232;-86
2024/04/08 05:53:54;;;;;;;9.33;2.43;;;;;;;12.86;90.72;95365.66;5490930;26;20287;-86
2024/04/08 05:56:20;;;;;;;7.23;2.70;;;;;;;12.89;90.58;95372.31;5487756;26;20240;-86
2024/04/08 05:58:49;;;;;;;9.47;3.20;;;;;;;12.96;90.45;95376.41;5489633;26;20646;-86
2024/04/08 06:01:17;;;;;;;6.63;3.60;;;;;;;12.95;91.09;95379.31;5482794;26;20232;-86
2024/04/08 06:03:46;;;;;;;17.90;4.17;;;;;;;13.00;90.92;95380.19;5469216;26;20298;-86
2024/04/08 06:06:16;;;;;;;13.20;4.07;;;;;;;13.14;90.34;95380.69;5467149;26;20290;-86
2024/04/08 06:08:44;;;;;;;8.27;3.57;;;;;;;12.96;91.55;95384.34;5457832;26;20244;-87
2024/04/08 06:11:10;;;;;;;14.57;3.27;;;;;;;13.09;91.19;95375.34;5457664;26;20248;-86
2024/04/08 06:13:39;;;;;;;8.60;3.23;;;;;;;12.96;92.16;95376.41;5456908;26;20285;-86
2024/04/08 06:16:05;;;;;;;11.47;3.40;;;;;;;13.06;92.15;95378.47;5489354;26;20240;-87
2024/04/08 06:18:36;;;;;;;12.57;3.23;;;;;;;13.32;90.89;95375.19;5490032;26;20244;-86
2024/04/08 06:21:02;;;;;;;9.00;2.87;;;;;;;13.21;90.84;95373.41;5490236;26;20601;-86
2024/04/08 06:23:31;;;;;;;9.20;3.03;;;;;;;13.19;91.29;95380.78;5487339;26;20286;-86
2024/04/08 06:25:58;;;;;;;17.10;3.37;;;;;;;13.30;91.41;95379.94;5490000;26;20291;-87
2024/04/08 06:28:26;;;;;;;12.53;2.93;;;;;;;13.46;91.17;95378.31;5491284;26;20304;-86
2024/04/08 06:30:52;;;;;;;5.73;2.30;;;;;;;13.60;90.33;95382.25;5458801;26;20279;-86
2024/04/08 06:33:20;;;;;;;8.47;2.57;;;;;;;13.69;89.65;95375.50;5490373;26;20236;-86
2024/04/08 06:35:49;;;;;;;6.67;2.40;;;;;;;13.93;87.96;95376.09;5488863;26;20278;-87
2024/04/08 06:38:17;;;;;;;7.97;2.77;;;;;;;14.04;87.76;95377.81;5490109;26;20241;-86
2024/04/08 06:40:44;;;;;;;7.70;3.07;;;;;;;14.20;86.74;95382.25;5490293;26;20291;-87
2024/04/08 06:43:13;;;;;;;9.97;3.07;;;;;;;14.32;86.35;95367.09;5489035;26;20752;-85
2024/04/08 06:45:39;;;;;;;9.50;2.63;;;;;;;14.27;87.27;95367.00;5482109;26;20279;-87
2024/04/08 06:48:08;;;;;;;6.13;2.27;;;;;;;14.51;86.10;95369.19;5488222;26;20314;-86
2024/04/08 06:50:34;;;;;;;7.80;3.10;;;;;;;14.43;85.82;95372.25;5490242;26;20803;-86
2024/04/08 06:53:05;;;;;;;6.27;1.90;;;;;;;14.52;86.09;95368.13;5489803;26;20305;-86
2024/04/08 06:55:30;;;;;;;13.73;3.00;;;;;;;14.63;85.99;95376.19;5489738;26;20294;-87
2024/04/08 06:57:59;;;;;;;5.27;2.00;;;;;;;14.79;85.19;95351.44;5457928;26;20304;-87
2024/04/08 07:00:25;;;;;;;11.43;2.47;;;;;;;14.91;84.26;95346.78;5492260;26;20236;-86
2024/04/08 07:02:54;;;;;;;19.10;2.90;;;;;;;14.85;82.92;95353.06;5493480;26;20277;-87
2024/04/08 07:05:20;;;;;;;7.43;2.30;;;;;;;15.08;81.97;95350.91;5494917;26;20225;-87
2024/04/08 07:07:48;;;;;;;8.97;2.77;;;;;;;15.25;81.54;95350.78;5461844;26;20248;-86
2024/04/08 07:10:17;;;;;;;10.43;2.57;;;;;;;15.44;81.40;95345.88;5494756;26;20275;-86
2024/04/08 07:12:45;;;;;;;6.17;2.07;;;;;;;15.64;81.09;95348.69;5494634;26;20335;-87
2024/04/08 07:15:12;;;;;;;6.20;2.37;;;;;;;15.94;80.22;95343.56;5462012;26;20554;-87
2024/04/08 07:17:41;;;;;;;7.47;2.93;;;;;;;16.00;78.25;95342.56;5494548;26;20656;-85
2024/04/08 07:20:08;;;;;;;8.43;2.60;;;;;;;16.07;77.74;95344.97;5495045;26;20272;-86
2024/04/08 07:22:38;;;;;;;8.77;2.07;;;;;;;16.14;78.50;95338.38;5461971;26;20244;-85
2024/04/08 07:25:04;;;;;;;9.17;2.03;;;;;;;16.22;79.45;95339.75;5493641;26;20259;-87
2024/04/08 07:27:35;;;;;;;8.07;2.03;;;;;;;16.32;80.45;95345.88;5494158;26;20287;-86
2024/04/08 07:30:01;;;;;;;12.87;2.27;;;;;;;16.41;79.83;95351.50;5494045;26;20248;-86
2024/04/08 07:32:30;;;;;;;7.70;2.57;;;;;;;16.57;79.49;95343.34;5495106;26;20244;-86
2024/04/08 07:34:56;;;;;;;7.90;2.40;;;;;;;16.75;78.81;95341.25;5494515;26;20237;-86
2024/04/08 07:37:24;;;;;;;4.80;2.00;;;;;;;16.95;77.97;95335.97;5495685;26;20360;-86
2024/04/08 07:39:50;;;;;;;11.50;2.67;;;;;;;17.26;75.62;95343.72;5495134;26;20534;-87
2024/04/08 07:42:19;;;;;;;4.70;2.10;;;;;;;17.45;75.07;95340.53;5495472;26;20279;-86
2024/04/08 07:44:48;;;;;;;6.33;1.70;;;;;;;17.47;74.28;95343.72;5494515;26;20229;-86
2024/04/08 07:47:20;;;;;;;6.90;1.90;;;;;;;17.57;74.24;95347.22;5495195;26;20236;-87
2024/04/08 07:49:46;;;;;;;10.77;2.50;;;;;;;17.62;73.98;95349.84;5493812;26;20228;-86
2024/04/08 07:52:14;;;;;;;12.27;2.20;;;;;;;17.82;71.84;95341.84;5460362;26;20430;-85
2024/04/08 07:54:40;;;;;;;5.47;2.13;;;;;;;18.01;65.94;95338.59;5493545;26;20272;-86
2024/04/08 07:57:09;;;;;;;9.97;1.97;;;;;;;18.13;62.66;95341.75;5494047;26;20623;-86
2024/04/08 07:59:36;;;;;;;9.57;2.00;;;;;;;18.20;62.08;95337.75;5495159;26;20237;-86
2024/04/08 08:02:07;;;;;;;5.97;2.00;;;;;;;18.39;60.82;95330.72;5493711;26;20257;-86
2024/04/08 08:04:33;;;;;;;10.17;1.97;;;;;;;18.72;59.44;95333.81;5461730;26;20233;-87
2024/04/08 08:07:02;;;;;;;8.73;2.37;;;;;;;18.85;57.97;95330.53;5494355;26;20236;-87
2024/04/08 08:09:31;;;;;;;8.40;2.03;;;;;;;18.77;58.61;95339.09;5494939;26;20224;-87
2024/04/08 08:11:59;;;;;;;7.50;2.40;;;;;;;18.86;57.51;95332.09;5494783;26;20225;-86
2024/04/08 08:14:28;;;;;;;9.93;1.93;;;;;;;19.08;55.73;95327.97;5491908;26;20244;-86
2024/04/08 08:16:57;;;;;;;5.30;1.73;;;;;;;19.20;55.42;95327.59;5492095;26;20244;-86
2024/04/08 08:19:28;;;;;;;35.40;3.57;;;;;;;19.19;55.42;95326.00;5462389;26;20236;-86
2024/04/08 08:21:56;;;;;;;9.60;1.80;;;;;;;19.35;54.47;95332.03;5462297;26;20251;-86
2024/04/08 08:24:25;;;;;;;5.27;1.40;;;;;;;19.50;54.37;95327.38;5494354;26;20225;-86
2024/04/08 08:26:53;;;;;;;9.90;2.37;;;;;;;19.59;52.28;95320.34;5494907;26;20237;-86
2024/04/08 08:29:22;;;;;;;13.53;1.83;;;;;;;19.75;52.57;95316.47;5494522;26;20224;-86
2024/04/08 08:31:48;;;;;;;8.50;1.47;;;;;;;19.73;52.73;95321.28;5493304;26;20232;-86
2024/04/08 08:34:17;;;;;;;7.30;1.40;;;;;;;19.80;53.14;95316.41;5495362;26;20271;-86
2024/04/08 08:36:49;;;;;;;8.77;1.77;;;;;;;19.83;52.92;95310.50;5495762;26;20239;-86
2024/04/08 08:39:16;;;;;;;23.30;2.47;;;;;;;19.90;52.76;95299.47;5495682;26;20294;-86
2024/04/08 08:41:44;;;;;;;6.50;1.40;;;;;;;19.93;52.21;95306.91;5493919;26;20272;-86
2024/04/08 08:44:10;;;;;;;5.17;1.43;;;;;;;20.16;51.77;95308.00;5493323;26;20231;-86
2024/04/08 08:46:39;;;;;;;5.90;1.63;;;;;;;20.22;51.55;95302.34;5493213;26;20639;-86
2024/04/08 08:49:05;;;;;;;5.53;1.60;;;;;;;20.34;52.39;95299.25;5522376;25;20235;-86
2024/04/08 08:51:34;;;;;;;5.00;1.87;;;;;;;20.32;53.19;95298.75;5461880;26;20288;-86
2024/04/08 08:54:02;;;;;;;5.00;1.40;;;;;;;20.50;53.08;95292.63;5493844;26;20275;-86
2024/04/08 08:56:31;;;;;;;8.70;1.90;;;;;;;20.46;52.37;95311.16;5494523;26;20233;-88
2024/04/08 08:58:57;;;;;;;7.57;1.57;;;;;;;20.49;52.25;95299.09;5462545;26;20261;-86
2024/04/08 09:01:26;;;;;;;3.53;1.57;;;;;;;20.65;52.13;95295.88;5461344;26;20251;-86
2024/04/08 09:03:51;;;;;;;8.93;1.80;;;;;;;20.72;52.70;95292.88;5494275;26;20278;-86
2024/04/08 09:06:20;;;;;;;11.80;2.07;;;;;;;20.77;50.81;95298.13;5494137;26;20232;-86
2024/04/08 09:08:46;;;;;;;29.53;2.43;;;;;;;20.98;51.33;95290.63;5493845;26;20278;-87
2024/04/08 09:11:18;;;;;;;8.90;2.17;;;;;;;21.05;50.15;95289.19;5494805;26;20389;-86
2024/04/08 09:13:44;;;;;;;6.53;1.57;;;;;;;21.27;50.79;95299.28;5461916;26;20236;-86
2024/04/08 09:16:12;;;;;;;6.43;1.40;;;;;;;21.27;50.40;95299.28;5495108;26;20280;-86
2024/04/08 09:18:38;;;;;;;4.53;1.60;;;;;;;21.32;50.75;95300.03;5495793;26;20268;-86
2024/04/08 09:21:07;;;;;;;11.40;1.50;;;;;;;21.46;49.70;95283.97;5495442;26;20276;-86
2024/04/08 09:23:35;;;;;;;6.33;1.73;;;;;;;21.33;49.82;95296.22;5495063;26;20282;-86
2024/04/08 09:26:04;;;;;;;8.10;1.60;;;;;;;21.46;49.38;95293.91;5494531;26;20244;-86
2024/04/08 09:28:32;;;;;;;3.50;1.47;;;;;;;21.62;49.31;95285.31;5495154;26;20232;-86
2024/04/08 09:31:01;;;;;;;58.37;6.40;;;;;;;21.69;48.79;95280.34;5461253;26;20259;-86
2024/04/08 09:33:27;;;;;;;23.37;3.13;;;;;;;21.84;48.67;95280.09;5494632;26;20228;-86
2024/04/08 09:35:56;;;;;;;7.20;1.40;;;;;;;21.92;49.97;95276.72;5494595;26;20759;-86
2024/04/08 09:38:22;;;;;;;4.17;1.50;;;;;;;22.07;51.17;95278.34;5495154;26;20610;-86
2024/04/08 09:40:51;;;;;;;15.80;2.27;;;;;;;22.25;48.95;95282.00;5495581;26;20267;-86
2024/04/08 09:43:17;;;;;;;9.33;1.83;;;;;;;22.12;47.48;95280.91;5494842;26;20230;-86
2024/04/08 09:45:48;;;;;;;4.07;1.40;;;;;;;22.00;46.50;95281.41;5495133;26;20331;-86
2024/04/08 09:48:14;;;;;;;3.83;1.33;;;;;;;22.25;45.24;95285.47;5495264;26;20275;-86
2024/04/08 09:50:43;;;;;;;8.17;1.53;;;;;;;22.21;46.44;95289.06;5494633;26;20285;-87
2024/04/08 09:53:09;;;;;;;10.60;1.77;;;;;;;22.01;45.54;95292.91;5496595;26;20703;-86
2024/04/08 09:55:41;;;;;;;11.20;1.93;;;;;;;22.25;46.49;95292.72;5494645;26;20270;-87
2024/04/08 09:58:08;;;;;;;12.50;1.70;;;;;;;22.39;44.69;95280.91;5463833;26;20248;-87
2024/04/08 10:00:37;;;;;;;6.70;1.43;;;;;;;22.43;43.11;95289.13;5496162;26;20235;-87
2024/04/08 10:03:08;;;;;;;13.90;2.47;;;;;;;-142.84;100.00;61745.28;5496681;26;20271;-87
2024/04/08 10:05:37;;;;;;;9.23;1.67;;;;;;;-142.84;100.00;61745.28;5463437;26;20238;-86
2024/04/08 10:08:03;;;;;;;6.17;1.60;;;;;;;-142.84;100.00;61745.28;5497895;26;20238;-86
2024/04/08 10:10:32;;;;;;;9.07;1.57;;;;;;;-142.84;100.00;61745.28;5500007;26;20301;-87
2024/04/08 10:12:58;;;;;;;6.93;1.50;;;;;;;-142.84;100.00;61745.28;5493692;26;20740;-88
2024/04/08 10:15:30;;;;;;;8.17;1.60;;;;;;;-142.84;100.00;61745.28;5497798;26;20224;-87
2024/04/08 10:17:56;;;;;;;4.93;1.67;;;;;;;-142.84;100.00;61745.28;5464332;26;20720;-86
2024/04/08 10:20:27;;;;;;;5.60;1.80;;;;;;;-142.84;100.00;61745.28;5498453;26;20224;-86
2024/04/08 10:22:53;;;;;;;9.03;1.70;;;;;;;-142.84;100.00;61745.28;5498515;26;20231;-85
2024/04/08 10:25:40;;;;;;;7.30;1.53;;;;;;;-142.84;100.00;61745.28;5464995;26;20310;-85
2024/04/08 10:28:07;;;;;;;8.07;1.90;;;;;;;-142.84;100.00;61745.28;5498243;26;20238;-86
2024/04/08 10:30:35;;;;;;;3.30;1.40;;;;;;;-142.84;100.00;61745.28;5460706;26;20282;-85
2024/04/08 10:33:01;;;;;;;6.90;1.33;;;;;;;-142.84;100.00;61745.28;5494383;26;20294;-85
2024/04/08 10:35:32;;;;;;;4.77;1.60;;;;;;;-142.84;100.00;61745.28;5494976;26;20297;-85
2024/04/08 10:37:58;;;;;;;7.03;1.83;;;;;;;-142.84;100.00;61745.28;5495798;26;20247;-85
2024/04/08 10:40:27;;;;;;;8.13;1.93;;;;;;;-142.84;100.00;61745.28;5498120;26;20225;-85
2024/04/08 10:42:53;;;;;;;10.40;2.07;;;;;;;-142.84;100.00;61745.28;5505554;26;20291;-85
2024/04/08 10:45:22;;;;;;;10.23;1.87;;;;;;;22.50;43.12;95286.84;5500409;26;20723;-85
2024/04/08 10:47:48;;;;;;;10.27;2.57;;;;;;;23.65;42.22;95231.50;5495024;26;20284;-85
2024/04/08 10:50:16;;;;;;;4.53;1.87;;;;;;;23.88;42.78;95238.41;5461471;26;20689;-85
2024/04/08 10:52:45;;;;;;;10.20;2.13;;;;;;;23.97;41.77;95236.53;5494649;26;20293;-85
2024/04/08 10:55:13;;;;;;;6.73;1.63;;;;;;;24.10;41.92;95237.56;5489530;26;20243;-84
2024/04/08 10:57:39;;;;;;;13.77;2.13;;;;;;;24.38;40.96;95233.53;5494890;26;20250;-85
2024/04/08 11:00:09;;;;;;;8.43;2.17;;;;;;;24.43;41.07;95230.69;5493668;26;20290;-85
2024/04/08 11:02:35;;;;;;;7.40;1.80;;;;;;;24.36;41.13;95233.03;5494821;26;20236;-85
2024/04/08 11:05:04;;;;;;;5.03;1.80;;;;;;;24.31;39.57;95222.44;5494721;26;20291;-85
2024/04/08 11:07:35;;;;;;;9.90;2.60;;;;;;;24.53;39.79;95233.06;5495642;26;20345;-86
2024/04/08 11:10:06;;;;;;;35.50;5.67;;;;;;;24.54;41.38;95243.53;5459995;26;20581;-85
2024/04/08 11:12:33;;;;;;;10.37;2.50;;;;;;;24.52;40.28;95244.94;5494666;26;20236;-85
2024/04/08 11:15:03;;;;;;;9.63;2.03;;;;;;;24.64;40.27;95251.28;5462100;26;20249;-86
2024/04/08 11:17:29;;;;;;;13.00;2.10;;;;;;;24.80;40.92;95251.66;5462155;26;20369;-85
2024/04/08 11:19:58;;;;;;;8.77;2.13;;;;;;;24.78;41.87;95243.13;5455129;26;20779;-85
2024/04/08 11:22:24;;;;;;;15.80;2.80;;;;;;;24.83;41.09;95244.88;5464502;26;20254;-86
2024/04/08 11:24:53;;;;;;;11.53;2.10;;;;;;;24.90;40.17;95245.19;5496941;26;20270;-86
2024/04/08 11:27:22;;;;;;;12.50;2.17;;;;;;;25.08;41.61;95261.03;5466123;26;20286;-85
2024/04/08 11:29:51;;;;;;;15.83;2.27;;;;;;;25.01;40.55;95257.22;5499215;26;20777;-86
2024/04/08 11:32:16;;;;;;;12.67;2.80;;;;;;;24.98;40.33;95263.22;5498362;26;20275;-86